createdAt,value
2023-07-03T00:00:13.903Z,14.08
2023-07-03T00:02:41.197Z,14.13
2023-07-03T00:05:10.025Z,14.06
2023-07-03T00:07:38.275Z,13.94
2023-07-03T00:10:06.046Z,13.98
2023-07-03T00:12:33.166Z,13.98
2023-07-03T00:14:59.912Z,13.93
2023-07-03T00:17:26.716Z,13.98
2023-07-03T00:19:53.498Z,13.89
2023-07-03T00:22:22.024Z,13.93
2023-07-03T00:24:48.872Z,13.89
2023-07-03T00:27:15.698Z,13.84
2023-07-03T00:29:42.551Z,13.90
2023-07-03T00:32:09.553Z,13.83
2023-07-03T00:34:36.308Z,13.84
2023-07-03T00:37:03.260Z,13.82
2023-07-03T00:39:30.178Z,13.80
2023-07-03T00:41:56.983Z,13.77
2023-07-03T00:44:24.181Z,13.83
2023-07-03T00:46:52.231Z,13.79
2023-07-03T00:49:21.520Z,13.79
2023-07-03T00:51:53.047Z,13.77
2023-07-03T00:54:19.927Z,13.81
2023-07-03T00:56:46.853Z,13.77
2023-07-03T00:59:14.710Z,13.71
2023-07-03T01:01:54.887Z,13.67
2023-07-03T01:04:28.013Z,13.73
2023-07-03T01:07:02.971Z,13.67
2023-07-03T01:09:39.041Z,13.68
2023-07-03T01:12:07.039Z,13.75
2023-07-03T01:14:35.579Z,13.69
2023-07-03T01:17:03.096Z,13.55
2023-07-03T01:19:33.543Z,13.64
2023-07-03T01:22:08.782Z,13.69
2023-07-03T01:24:46.520Z,13.65
2023-07-03T01:27:16.595Z,13.70
2023-07-03T01:29:45.039Z,13.69
2023-07-03T01:32:13.332Z,13.73
2023-07-03T01:34:46.843Z,13.70
2023-07-03T01:37:15.595Z,13.62
2023-07-03T01:39:46.626Z,13.59
2023-07-03T01:42:14.318Z,13.60
2023-07-03T01:44:41.113Z,13.56
2023-07-03T01:47:13.375Z,13.58
2023-07-03T01:49:40.347Z,13.58
2023-07-03T01:52:15.308Z,13.54
2023-07-03T01:55:04.260Z,13.50
2023-07-03T01:57:47.168Z,13.50
2023-07-03T02:00:21.059Z,13.45
2023-07-03T02:02:53.170Z,13.45
2023-07-03T02:05:24.932Z,13.38
2023-07-03T02:07:58.226Z,13.38
2023-07-03T02:10:25.081Z,13.37
2023-07-03T02:12:51.903Z,13.33
2023-07-03T02:15:18.797Z,13.27
2023-07-03T02:17:46.710Z,13.30
2023-07-03T02:20:15.629Z,13.22
2023-07-03T02:22:43.196Z,13.20
2023-07-03T02:25:13.101Z,13.15
2023-07-03T02:27:43.931Z,13.10
2023-07-03T02:30:11.648Z,13.11
2023-07-03T02:32:40.976Z,13.06
2023-07-03T02:35:09.818Z,13.09
2023-07-03T02:37:37.796Z,13.01
2023-07-03T02:40:11.283Z,13.03
2023-07-03T02:42:38.322Z,13.09
2023-07-03T02:45:06.580Z,13.15
2023-07-03T02:47:35.713Z,13.18
2023-07-03T02:50:04.170Z,13.14
2023-07-03T02:52:31.183Z,13.19
2023-07-03T02:54:58.156Z,13.22
2023-07-03T02:57:25.036Z,13.23
2023-07-03T02:59:51.922Z,13.23
2023-07-03T03:02:19.816Z,13.19
2023-07-03T03:04:48.527Z,13.20
2023-07-03T03:07:15.781Z,13.22
2023-07-03T03:09:42.499Z,13.23
2023-07-03T03:12:10.068Z,13.26
2023-07-03T03:14:37.026Z,13.29
2023-07-03T03:17:04.014Z,13.31
2023-07-03T03:19:30.801Z,13.33
2023-07-03T03:21:57.569Z,13.37
2023-07-03T03:24:24.694Z,13.38
2023-07-03T03:26:51.513Z,13.38
2023-07-03T03:29:18.418Z,13.39
2023-07-03T03:31:45.213Z,13.35
2023-07-03T03:34:13.963Z,13.38
2023-07-03T03:36:41.174Z,13.36
2023-07-03T03:39:07.969Z,13.40
2023-07-03T03:41:34.796Z,13.43
2023-07-03T03:44:01.577Z,13.38
2023-07-03T03:46:28.670Z,13.36
2023-07-03T03:48:55.434Z,13.38
2023-07-03T03:51:22.489Z,13.32
2023-07-03T03:53:49.247Z,13.32
2023-07-03T03:56:16.216Z,13.26
2023-07-03T03:58:43.029Z,13.22
2023-07-03T04:01:09.838Z,13.18
2023-07-03T04:03:36.602Z,13.22
2023-07-03T04:06:03.491Z,13.22
2023-07-03T04:08:30.260Z,13.19
2023-07-03T04:10:57.222Z,13.20
2023-07-03T04:13:24.383Z,13.22
2023-07-03T04:15:54.782Z,13.25
2023-07-03T04:18:23.238Z,13.30
2023-07-03T04:20:50.079Z,13.34
2023-07-03T04:23:17.913Z,13.41
2023-07-03T04:25:45.058Z,13.46
2023-07-03T04:28:13.489Z,13.39
2023-07-03T04:30:40.259Z,13.38
2023-07-03T04:33:07.447Z,13.51
2023-07-03T04:35:34.356Z,13.52
2023-07-03T04:38:02.533Z,13.63
2023-07-03T04:40:30.986Z,13.60
2023-07-03T04:42:58.556Z,13.61
2023-07-03T04:45:27.265Z,13.69
2023-07-03T04:47:54.707Z,13.76
2023-07-03T04:50:26.146Z,13.88
2023-07-03T04:52:55.050Z,13.95
2023-07-03T04:55:23.232Z,14.01
2023-07-03T04:57:50.787Z,14.06
2023-07-03T05:00:20.407Z,14.17
2023-07-03T05:02:49.490Z,14.25
2023-07-03T05:05:17.659Z,14.34
2023-07-03T05:07:45.926Z,14.35
2023-07-03T05:10:14.626Z,14.41
2023-07-03T05:12:41.739Z,14.40
2023-07-03T05:15:09.626Z,14.44
2023-07-03T05:17:39.720Z,14.42
2023-07-03T05:20:13.173Z,14.42
2023-07-03T05:22:41.774Z,14.50
2023-07-03T05:25:10.493Z,14.57
2023-07-03T05:27:38.333Z,14.65
2023-07-03T05:30:06.246Z,14.71
2023-07-03T05:32:33.755Z,14.72
2023-07-03T05:35:03.477Z,14.79
2023-07-03T05:37:30.526Z,14.86
2023-07-03T05:39:57.265Z,14.92
2023-07-03T05:42:24.291Z,14.93
2023-07-03T05:44:51.124Z,14.94
2023-07-03T05:47:18.557Z,14.96
2023-07-03T05:49:45.416Z,14.95
2023-07-03T05:52:12.593Z,14.92
2023-07-03T05:54:39.810Z,14.97
2023-07-03T05:57:08.898Z,15.09
2023-07-03T05:59:37.154Z,15.12
2023-07-03T06:02:06.851Z,15.19
2023-07-03T06:04:34.521Z,15.28
2023-07-03T06:07:02.759Z,15.32
2023-07-03T06:09:30.012Z,15.34
2023-07-03T06:11:57.407Z,15.31
2023-07-03T06:14:24.829Z,15.31
2023-07-03T06:16:53.077Z,15.33
2023-07-03T06:19:21.534Z,15.60
2023-07-03T06:21:48.834Z,15.69
2023-07-03T06:24:16.192Z,16.12
2023-07-03T06:26:51.676Z,16.10
2023-07-03T06:29:18.825Z,16.32
2023-07-03T06:31:45.896Z,16.16
2023-07-03T06:34:12.991Z,16.19
2023-07-03T06:36:39.851Z,16.22
2023-07-03T06:39:09.495Z,16.32
2023-07-03T06:41:39.678Z,16.56
2023-07-03T06:44:10.183Z,16.72
2023-07-03T06:46:36.990Z,16.93
2023-07-03T06:49:03.941Z,17.21
2023-07-03T06:51:30.760Z,17.25
2023-07-03T06:53:57.821Z,17.29
2023-07-03T06:56:25.027Z,17.08
2023-07-03T06:58:52.137Z,16.82
2023-07-03T07:01:24.730Z,17.07
2023-07-03T07:03:52.080Z,17.00
2023-07-03T07:06:21.414Z,17.22
2023-07-03T07:08:48.414Z,17.36
2023-07-03T07:11:18.132Z,17.51
2023-07-03T07:13:46.819Z,17.72
2023-07-03T07:16:28.251Z,17.93
2023-07-03T07:18:57.597Z,18.04
2023-07-03T07:21:25.105Z,18.42
2023-07-03T07:23:54.815Z,18.55
2023-07-03T07:26:22.966Z,18.78
2023-07-03T07:28:49.795Z,18.84
2023-07-03T07:31:25.348Z,18.77
2023-07-03T07:33:52.873Z,18.82
2023-07-03T07:36:22.346Z,18.32
2023-07-03T07:38:56.290Z,18.19
2023-07-03T07:41:26.360Z,18.06
2023-07-03T07:43:54.794Z,17.91
2023-07-03T07:46:26.600Z,17.95
2023-07-03T07:49:01.401Z,18.29
2023-07-03T07:51:28.680Z,18.15
2023-07-03T07:53:56.714Z,17.56
2023-07-03T07:56:24.519Z,16.37
2023-07-03T07:58:51.777Z,15.76
2023-07-03T08:01:19.062Z,15.00
2023-07-03T08:03:46.352Z,14.50
2023-07-03T08:06:14.808Z,14.30
2023-07-03T08:08:41.690Z,14.15
2023-07-03T08:11:10.541Z,14.10
2023-07-03T08:13:38.914Z,14.11
2023-07-03T08:16:06.259Z,14.01
2023-07-03T08:18:33.211Z,14.07
2023-07-03T08:21:00.013Z,13.80
2023-07-03T08:23:26.977Z,13.74
2023-07-03T08:25:56.303Z,13.76
2023-07-03T08:28:23.781Z,13.66
2023-07-03T08:30:50.954Z,13.70
2023-07-03T08:33:17.953Z,13.98
2023-07-03T08:38:15.212Z,14.56
2023-07-03T08:40:43.392Z,14.66
2023-07-03T08:43:20.071Z,15.11
2023-07-03T08:45:50.458Z,15.44
2023-07-03T08:48:25.081Z,15.63
2023-07-03T08:50:59.419Z,16.20
2023-07-03T08:53:33.805Z,16.64
2023-07-03T08:56:06.768Z,17.00
2023-07-03T08:58:33.584Z,16.76
2023-07-03T09:01:28.671Z,16.52
2023-07-03T09:04:22.393Z,16.72
2023-07-03T09:07:02.609Z,16.81
2023-07-03T09:09:50.904Z,16.54
2023-07-03T09:12:38.209Z,16.50
2023-07-03T09:15:30.914Z,16.42
2023-07-03T09:18:00.619Z,16.11
2023-07-03T09:20:29.677Z,15.98
2023-07-03T09:23:22.337Z,15.82
2023-07-03T09:26:02.335Z,15.71
2023-07-03T09:28:36.284Z,15.75
2023-07-03T09:31:04.701Z,15.86
2023-07-03T09:33:32.520Z,16.37
2023-07-03T09:36:05.290Z,16.77
2023-07-03T09:38:36.966Z,17.28
2023-07-03T09:41:05.936Z,17.60
2023-07-03T09:43:32.928Z,17.77
2023-07-03T09:46:13.596Z,18.13
2023-07-03T09:48:40.673Z,18.72
2023-07-03T09:51:19.982Z,18.89
2023-07-03T09:53:46.989Z,19.31
2023-07-03T09:56:18.752Z,19.81
2023-07-03T09:58:49.100Z,19.87
2023-07-03T10:06:40.863Z,20.61
2023-07-03T10:11:57.777Z,20.65
2023-07-03T10:14:31.937Z,21.30
2023-07-03T10:17:00.852Z,21.29
2023-07-03T10:19:29.117Z,21.67
2023-07-03T10:21:56.259Z,20.77
2023-07-03T10:24:23.268Z,20.68
2023-07-03T10:26:54.588Z,21.38
2023-07-03T10:29:29.647Z,21.47
2023-07-03T10:32:01.711Z,22.05
2023-07-03T10:34:53.269Z,22.09
2023-07-03T10:37:22.162Z,21.42
2023-07-03T10:40:05.725Z,20.80
2023-07-03T10:42:33.977Z,20.13
2023-07-03T10:45:09.180Z,19.79
2023-07-03T10:47:48.313Z,19.08
2023-07-03T10:50:18.264Z,18.70
2023-07-03T10:52:57.509Z,19.28
2023-07-03T10:55:34.522Z,20.11
2023-07-03T10:58:15.788Z,21.19
2023-07-03T11:01:05.704Z,21.97
2023-07-03T11:03:43.909Z,21.21
2023-07-03T11:06:22.905Z,20.46
2023-07-03T11:08:58.732Z,19.79
2023-07-03T11:11:41.561Z,19.74
2023-07-03T11:14:18.652Z,19.41
2023-07-03T11:17:12.754Z,19.42
2023-07-03T11:19:54.710Z,19.29
2023-07-03T11:25:24.485Z,18.82
2023-07-03T11:28:15.850Z,18.65
2023-07-03T11:30:43.655Z,18.43
2023-07-03T11:33:11.614Z,18.51
2023-07-03T11:35:51.569Z,18.36
2023-07-03T11:40:56.391Z,16.86
2023-07-03T11:43:48.664Z,16.37
2023-07-03T11:46:23.054Z,16.16
2023-07-03T11:48:56.913Z,16.63
2023-07-03T11:51:36.005Z,16.64
2023-07-03T11:54:18.288Z,16.50
2023-07-03T11:56:50.306Z,16.40
2023-07-03T11:59:18.625Z,16.36
2023-07-03T12:01:45.528Z,16.88
2023-07-03T12:04:12.289Z,16.85
2023-07-03T12:06:42.245Z,16.98
2023-07-03T12:09:33.302Z,17.21
2023-07-03T12:12:08.889Z,17.68
2023-07-03T12:14:41.991Z,18.66
2023-07-03T12:17:36.204Z,19.06
2023-07-03T12:20:11.944Z,19.11
2023-07-03T12:22:46.321Z,18.91
2023-07-03T12:25:20.745Z,18.71
2023-07-03T12:27:48.784Z,18.51
2023-07-03T12:30:25.438Z,18.27
2023-07-03T12:32:54.642Z,18.15
2023-07-03T12:35:33.840Z,18.04
2023-07-03T12:38:06.331Z,17.97
2023-07-03T12:40:34.055Z,18.05
2023-07-03T12:43:01.128Z,17.95
2023-07-03T12:45:29.886Z,17.76
2023-07-03T12:48:19.708Z,17.59
2023-07-03T12:50:50.915Z,17.46
2023-07-03T12:53:20.122Z,17.32
2023-07-03T12:55:52.879Z,17.36
2023-07-03T12:58:20.908Z,17.22
2023-07-03T13:01:08.337Z,17.25
2023-07-03T13:03:43.127Z,17.21
2023-07-03T13:06:30.497Z,17.14
2023-07-03T13:08:58.447Z,17.11
2023-07-03T13:11:45.698Z,16.95
2023-07-03T13:14:15.671Z,16.71
2023-07-03T13:16:44.952Z,16.65
2023-07-03T13:19:11.881Z,16.46
2023-07-03T13:21:40.431Z,16.26
2023-07-03T13:24:14.364Z,16.35
2023-07-03T13:26:42.759Z,16.30
2023-07-03T13:29:10.677Z,16.24
2023-07-03T13:31:50.608Z,16.28
2023-07-03T13:34:22.527Z,16.30
2023-07-03T13:37:03.624Z,16.35
2023-07-03T13:39:34.053Z,16.46
2023-07-03T13:42:01.042Z,16.54
2023-07-03T13:44:28.148Z,16.63
2023-07-03T13:46:55.908Z,16.75
2023-07-03T13:49:22.972Z,16.82
2023-07-03T13:51:51.428Z,17.63
2023-07-03T13:54:18.595Z,18.14
2023-07-03T13:56:46.150Z,18.06
2023-07-03T13:59:13.526Z,17.83
2023-07-03T14:01:42.168Z,17.67
2023-07-03T14:04:10.429Z,17.53
2023-07-03T14:06:37.443Z,17.60
2023-07-03T14:09:05.278Z,17.38
2023-07-03T14:11:32.273Z,17.23
2023-07-03T14:13:59.649Z,16.78
2023-07-03T14:16:26.744Z,16.14
2023-07-03T14:21:30.277Z,15.38
2023-07-03T14:23:59.435Z,15.09
2023-07-03T14:26:28.238Z,14.99
2023-07-03T14:28:57.637Z,14.98
2023-07-03T14:31:25.092Z,15.09
2023-07-03T14:33:51.876Z,15.06
2023-07-03T14:36:18.786Z,15.31
2023-07-03T14:38:45.812Z,15.44
2023-07-03T14:41:12.624Z,15.47
2023-07-03T14:43:39.434Z,15.49
2023-07-03T14:46:08.145Z,15.52
2023-07-03T14:48:34.934Z,15.59
2023-07-03T14:51:01.846Z,15.65
2023-07-03T14:53:28.725Z,15.70
2023-07-03T14:55:57.121Z,15.73
2023-07-03T14:58:23.990Z,15.88
2023-07-03T15:00:51.408Z,16.01
2023-07-03T15:03:18.309Z,16.03
2023-07-03T15:05:47.282Z,16.21
2023-07-03T15:08:15.445Z,16.37
2023-07-03T15:10:42.541Z,16.54
2023-07-03T15:13:09.746Z,16.66
2023-07-03T15:15:36.776Z,16.57
2023-07-03T15:18:04.808Z,16.58
2023-07-03T15:20:32.485Z,16.51
2023-07-03T15:22:59.314Z,16.48
2023-07-03T15:25:26.077Z,16.57
2023-07-03T15:27:52.997Z,16.72
2023-07-03T15:30:19.815Z,17.14
2023-07-03T15:32:54.034Z,17.39
2023-07-03T15:35:21.848Z,17.07
2023-07-03T15:37:49.089Z,17.10
2023-07-03T15:40:16.050Z,17.01
2023-07-03T15:42:44.927Z,16.90
2023-07-03T15:45:11.972Z,16.80
2023-07-03T15:47:39.487Z,16.91
2023-07-03T15:50:07.211Z,16.84
2023-07-03T15:52:34.305Z,16.73
2023-07-03T15:55:01.328Z,16.79
2023-07-03T15:57:28.293Z,16.75
2023-07-03T15:59:55.302Z,16.69
2023-07-03T16:02:22.343Z,16.69
2023-07-03T16:04:49.257Z,16.62
2023-07-03T16:07:16.225Z,16.70
2023-07-03T16:09:43.087Z,16.69
2023-07-03T16:12:09.957Z,16.65
2023-07-03T16:14:36.900Z,16.63
2023-07-03T16:17:04.235Z,16.64
2023-07-03T16:19:31.175Z,16.69
2023-07-03T16:21:58.278Z,16.69
2023-07-03T16:24:25.148Z,16.64
2023-07-03T16:26:51.904Z,16.56
2023-07-03T16:29:18.803Z,16.57
2023-07-03T16:31:46.617Z,16.61
2023-07-03T16:34:13.934Z,16.50
2023-07-03T16:36:41.073Z,16.54
2023-07-03T16:39:08.625Z,16.49
2023-07-03T16:41:39.532Z,16.32
2023-07-03T16:44:06.550Z,16.31
2023-07-03T16:46:35.238Z,16.22
2023-07-03T16:49:03.854Z,16.10
2023-07-03T16:51:30.695Z,15.99
2023-07-03T16:53:57.763Z,15.99
2023-07-03T16:56:28.139Z,15.89
2023-07-03T16:58:58.322Z,15.82
2023-07-03T17:01:27.973Z,15.69
2023-07-03T17:03:56.845Z,15.51
2023-07-03T17:06:27.780Z,15.45
2023-07-03T17:08:55.787Z,15.41
2023-07-03T17:11:22.973Z,15.38
2023-07-03T17:13:50.475Z,15.30
2023-07-03T17:16:18.575Z,15.31
2023-07-03T17:18:49.601Z,15.23
2023-07-03T17:21:19.540Z,15.38
2023-07-03T17:23:48.355Z,15.25
2023-07-03T17:26:15.344Z,15.30
2023-07-03T17:28:42.282Z,15.23
2023-07-03T17:31:09.484Z,15.26
2023-07-03T17:33:36.600Z,15.33
2023-07-03T17:36:03.614Z,15.31
2023-07-03T17:38:34.730Z,15.19
2023-07-03T17:41:02.787Z,15.15
2023-07-03T17:43:29.686Z,15.09
2023-07-03T17:45:56.526Z,15.11
2023-07-03T17:48:23.559Z,15.10
2023-07-03T17:50:51.043Z,15.04
2023-07-03T17:53:22.840Z,15.14
2023-07-03T17:55:50.694Z,15.15
2023-07-03T17:58:18.936Z,15.22
2023-07-03T18:00:45.651Z,15.21
2023-07-03T18:03:13.408Z,15.13
2023-07-03T18:05:40.382Z,15.27
2023-07-03T18:08:07.489Z,15.33
2023-07-03T18:10:35.621Z,15.17
2023-07-03T18:13:02.744Z,15.08
2023-07-03T18:15:43.475Z,15.19
2023-07-03T18:18:11.150Z,15.12
2023-07-03T18:20:38.389Z,15.15
2023-07-03T18:23:05.244Z,15.10
2023-07-03T18:25:35.778Z,15.08
2023-07-03T18:28:03.043Z,15.09
2023-07-03T18:30:30.911Z,15.06
2023-07-03T18:32:57.770Z,15.01
2023-07-03T18:35:24.587Z,14.99
2023-07-03T18:37:51.394Z,14.91
2023-07-03T18:40:18.958Z,14.84
2023-07-03T18:42:45.811Z,14.66
2023-07-03T18:45:12.647Z,14.67
2023-07-03T18:47:40.636Z,14.53
2023-07-03T18:50:08.425Z,14.48
2023-07-03T18:52:35.292Z,14.36
2023-07-03T18:55:02.121Z,14.34
2023-07-03T18:57:29.111Z,14.29
2023-07-03T18:59:55.891Z,14.33
2023-07-03T19:02:22.726Z,14.48
2023-07-03T19:04:49.847Z,14.33
2023-07-03T19:07:16.620Z,14.26
2023-07-03T19:09:43.786Z,14.19
2023-07-03T19:12:10.614Z,14.12
2023-07-03T19:14:37.561Z,14.17
2023-07-03T19:17:04.994Z,14.06
2023-07-03T19:19:32.009Z,14.09
2023-07-03T19:22:01.349Z,14.09
2023-07-03T19:24:28.840Z,14.13
2023-07-03T19:26:56.001Z,14.13
2023-07-03T19:29:22.867Z,14.09
2023-07-03T19:31:49.768Z,14.14
2023-07-03T19:34:16.524Z,14.13
2023-07-03T19:36:44.050Z,14.09
2023-07-03T19:39:11.136Z,14.09
2023-07-03T19:41:40.603Z,14.20
2023-07-03T19:44:08.370Z,14.19
2023-07-03T19:46:35.609Z,14.05
2023-07-03T19:49:03.562Z,14.04
2023-07-03T19:51:30.620Z,14.04
2023-07-03T19:53:57.734Z,13.94
2023-07-03T19:56:24.602Z,13.98
2023-07-03T19:58:51.556Z,13.94
2023-07-03T20:01:18.863Z,13.96
2023-07-03T20:03:46.073Z,14.00
2023-07-03T20:06:20.101Z,13.98
2023-07-03T20:08:47.539Z,13.92
2023-07-03T20:11:14.633Z,13.89
2023-07-03T20:13:41.536Z,13.66
2023-07-03T20:16:09.098Z,13.70
2023-07-03T20:18:35.953Z,13.73
2023-07-03T20:21:07.556Z,13.65
2023-07-03T20:23:34.874Z,13.70
2023-07-03T20:26:02.399Z,13.60
2023-07-03T20:28:29.115Z,13.59
2023-07-03T20:30:56.426Z,13.58
2023-07-03T20:33:23.500Z,13.48
2023-07-03T20:36:03.370Z,13.49
2023-07-03T20:38:30.978Z,13.46
2023-07-03T20:41:00.931Z,13.50
2023-07-03T20:43:28.290Z,13.44
2023-07-03T20:46:02.008Z,13.52
2023-07-03T20:48:29.654Z,13.51
2023-07-03T20:51:03.335Z,13.49
2023-07-03T20:53:40.877Z,13.49
2023-07-03T20:56:09.471Z,13.49
2023-07-03T20:58:37.646Z,13.46
2023-07-03T21:01:16.529Z,13.44
2023-07-03T21:03:45.551Z,13.44
2023-07-03T21:06:16.843Z,13.39
2023-07-03T21:08:44.912Z,13.33
2023-07-03T21:11:17.557Z,13.22
2023-07-03T21:13:46.727Z,13.16
2023-07-03T21:16:16.205Z,13.04
2023-07-03T21:18:43.239Z,13.02
2023-07-03T21:21:13.894Z,12.95
2023-07-03T21:23:41.291Z,12.91
2023-07-03T21:26:09.757Z,12.88
2023-07-03T21:28:37.624Z,12.71
2023-07-03T21:31:05.224Z,12.74
2023-07-03T21:33:34.001Z,12.69
2023-07-03T21:36:08.295Z,12.72
2023-07-03T21:38:36.499Z,12.81
2023-07-03T21:41:03.369Z,12.93
2023-07-03T21:43:30.189Z,13.15
2023-07-03T21:46:08.872Z,12.75
2023-07-03T21:48:37.984Z,12.80
2023-07-03T21:51:05.943Z,13.11
2023-07-03T21:53:36.671Z,13.01
2023-07-03T21:56:08.197Z,13.27
2023-07-03T21:58:35.882Z,13.14
2023-07-03T22:01:05.051Z,12.92
2023-07-03T22:03:33.361Z,12.97
2023-07-03T22:06:00.377Z,12.81
2023-07-03T22:08:27.263Z,12.85
2023-07-03T22:10:53.973Z,12.84
2023-07-03T22:13:21.020Z,12.94
2023-07-03T22:15:47.882Z,12.81
2023-07-03T22:18:16.042Z,12.72
2023-07-03T22:20:44.015Z,12.51
2023-07-03T22:23:12.356Z,12.40
2023-07-03T22:25:39.176Z,12.33
2023-07-03T22:28:06.484Z,12.22
2023-07-03T22:30:33.327Z,12.26
2023-07-03T22:33:00.244Z,12.19
2023-07-03T22:35:27.128Z,12.13
2023-07-03T22:37:54.593Z,12.14
2023-07-03T22:40:21.771Z,12.13
2023-07-03T22:42:48.504Z,12.11
2023-07-03T22:45:15.340Z,12.07
2023-07-03T22:47:42.231Z,12.11
2023-07-03T22:50:09.519Z,12.13
2023-07-03T22:52:36.681Z,12.11
2023-07-03T22:55:07.514Z,12.07
2023-07-03T22:57:35.187Z,12.01
2023-07-03T23:00:05.010Z,11.96
2023-07-03T23:02:33.062Z,12.00
2023-07-03T23:05:00.323Z,11.98
2023-07-03T23:07:27.623Z,11.99
2023-07-03T23:09:54.664Z,12.01
2023-07-03T23:12:21.800Z,11.91
2023-07-03T23:14:49.504Z,12.07
2023-07-03T23:17:26.393Z,12.01
2023-07-03T23:19:54.939Z,12.15
2023-07-03T23:22:22.810Z,12.10
2023-07-03T23:24:53.715Z,12.27
2023-07-03T23:27:21.222Z,12.31
2023-07-03T23:29:48.608Z,12.29
2023-07-03T23:32:16.089Z,12.21
2023-07-03T23:34:43.569Z,12.30
2023-07-03T23:37:10.544Z,12.36
2023-07-03T23:39:38.229Z,12.31
2023-07-03T23:42:09.131Z,12.35
2023-07-03T23:44:37.292Z,12.34
2023-07-03T23:47:04.512Z,12.32
2023-07-03T23:49:31.487Z,12.31
2023-07-03T23:51:58.609Z,12.25
2023-07-03T23:54:25.513Z,12.32
2023-07-03T23:56:53.205Z,12.40
2023-07-03T23:59:20.618Z,12.40
